METAR Data
IDs: Format: Raw Decoded Include TAF

Data at: 2021 UTC 23 Oct 2021

Region: TOP
KATL 231952Z 30006KT 10SM CLR 24/07 A3004 RMK AO2 SLP169 T02390067 $

KBOS 231954Z 25009KT 10SM FEW035 FEW060 FEW080 15/03 A2988 RMK AO2 SLP118 T01500028

KBWI 231954Z 25012G20KT 10SM FEW041 BKN060 BKN085 19/08 A2994 RMK AO2 SLP139 T01890083

KCLE 231951Z 27008KT 10SM FEW050 SCT075 BKN090 12/05 A2997 RMK AO2 RAE1854 SLP168 P0000 T01220050

KCLT 231952Z 19004KT 10SM FEW250 23/08 A3003 RMK AO2 SLP163 T02330078

KCVG 231952Z 19006KT 10SM SCT055 BKN120 OVC250 14/06 A3002 RMK AO2 SLP163 T01390061

KDCA 231952Z COR 25010KT 10SM -RA BKN055 OVC095 19/08 A2997 RMK AO2 RAB48 SLP148 P0000 T01890083

KDEN 231953Z VRB03KT 10SM FEW120 BKN160 BKN200 18/M12 A2972 RMK AO2 SLP014 T01831117

KDFW 231953Z 16015G25KT 10SM SCT041 SCT250 29/18 A2980 RMK AO2 SLP084 T02940183

KDTW 231953Z 25007KT 10SM FEW035 FEW060 BKN080 13/04 A2998 RMK AO2 SLP154 TCU DSNT SE-S T01280039

KEWR 231951Z 26008KT 10SM FEW040 SCT049 BKN060 BKN130 17/06 A2993 RMK AO2 SLP134 T01670061

KFLL 231953Z 07013KT 10SM SCT023 SCT045 BKN150 BKN250 28/26 A2993

KIAD 231952Z 29013G21KT 10SM SCT050 SCT080 19/07 A2997 RMK AO2 SLP146 T01940072

KIAH 231953Z 12007KT 10SM SCT030 SCT048 BKN150 BKN250 27/23 A2989 RMK AO2 LTG DSNT S-NW TSE17 SLP121 VCSH NW CB DSNT S NW T02670233

KJFK 231951Z 30008KT 10SM FEW100 SCT130 BKN200 16/06 A2994 RMK AO2 SLP137 T01560056

KLAS 231956Z 33006KT 10SM BKN240 24/04 A2976 RMK AO2 SLP056 T02390039

KLAX 231953Z 26009G16KT 10SM SCT015 SCT023 BKN043 19/13 A2992 RMK AO2 SLP128 T01940133 $

KLGA 231951Z 31005KT 10SM FEW050 SCT080 BKN140 BKN200 16/06 A2992 RMK AO2 SLP132 T01610056

KMCO 231953Z 09008KT 10SM SCT050 BKN250 31/18 A2997 RMK AO2 SLP145 T03110183

KMDW 231953Z 04005KT 10SM FEW050 FEW250 13/M03 A3002 RMK AO2 SLP167 T01331028 $

KMEM 231954Z 20007KT 10SM FEW050 SCT250 26/13 A2996 RMK AO2 SLP141 T02610128

KMIA 231953Z 06008KT 10SM SCT026CB BKN075 BKN110 BKN250 28/23 A2994 RMK AO2 SLP138 CB SE-SW-W MOV STNRY T02830228 $

KMSP 231953Z 16005KT 10SM FEW050 FEW170 11/M01 A3003 RMK AO2 SLP176 T01061011 $

KORD 231951Z 00000KT 10SM FEW048 FEW250 13/00 A3001 RMK AO2 SLP165 T01280000 $

KPDX 231953Z 13008KT 10SM SCT025 BKN032 OVC041 12/10 A2972 RMK AO2 RAB11E34 SLP065 P0000 T01220100

KPHL 231954Z 23010KT 10SM -RA SCT060 BKN090 18/09 A2994 RMK AO2 RAB46 SLP140 P0000 T01780089 VISNO W $

KPHX 231951Z 08004KT 10SM BKN200 BKN250 27/03 A2982 RMK AO2 SLP083 T02670033

KPIT 231951Z 25004KT 10SM SCT020 BKN030 BKN045 09/06 A3001 RMK AO2 SLP173 T00940056

KSAN 231951Z 22009G19KT 10SM FEW020 SCT026 20/12 A2994 RMK AO2 SLP137 T02000122 $

KSEA 231953Z 13006KT 10SM OVC049 11/09 A2966 RMK AO2 RAE38 SLP052 P0007 T01110089

KSFO 231956Z 25004KT 10SM FEW011 BKN100 BKN120 18/11 A2995 RMK AO2 SLP142 T01780106

KSLC 231954Z 33011KT 10SM -RA SCT009 BKN017 OVC038 06/06 A2988 RMK AO2 SLP096 P0001 T00610056

KSTL 231951Z 08004KT 10SM OVC013 14/09 A2995 RMK AO2 SLP141 T01390094

KTPA 231953Z 23007KT 10SM SCT055 BKN300 31/21 A2996 RMK AO2 SLP143 T03060206